createdAt,value
2023-03-25T00:01:09.249Z,98635.97
2023-03-25T00:03:43.358Z,98633.34
2023-03-25T00:06:12.552Z,98635.03
2023-03-25T00:08:40.144Z,98632.34
2023-03-25T00:11:08.524Z,98624.81
2023-03-25T00:13:36.878Z,98628.22
2023-03-25T00:16:07.222Z,98622.91
2023-03-25T00:18:34.863Z,98624.88
2023-03-25T00:21:10.888Z,98623.81
2023-03-25T00:23:40.128Z,98617.03
2023-03-25T00:26:08.315Z,98609.22
2023-03-25T00:28:37.648Z,98604.75
2023-03-25T00:31:12.796Z,98609.19
2023-03-25T00:33:43.506Z,98599.59
2023-03-25T00:36:13.870Z,98599.50
2023-03-25T00:38:43.477Z,98589.94
2023-03-25T00:41:25.954Z,98595.84
2023-03-25T00:43:56.531Z,98577.59
2023-03-25T00:46:26.815Z,98586.13
2023-03-25T00:48:55.388Z,98573.88
2023-03-25T00:51:24.054Z,98582.31
2023-03-25T00:53:54.264Z,98582.13
2023-03-25T00:56:23.501Z,98572.66
2023-03-25T00:58:51.416Z,98588.47
2023-03-25T01:01:27.531Z,98580.66
2023-03-25T01:04:00.547Z,98584.00
2023-03-25T01:06:35.269Z,98578.97
2023-03-25T01:09:06.711Z,98567.03
2023-03-25T01:11:35.101Z,98556.59
2023-03-25T01:14:06.117Z,98568.63
2023-03-25T01:16:34.205Z,98554.97
2023-03-25T01:19:01.729Z,98555.81
2023-03-25T01:21:29.434Z,98555.81
2023-03-25T01:23:57.037Z,98553.44
2023-03-25T01:26:24.647Z,98546.69
2023-03-25T01:29:02.463Z,98550.19
2023-03-25T01:31:31.685Z,98550.28
2023-03-25T01:34:00.407Z,98546.97
2023-03-25T01:36:29.785Z,98548.81
2023-03-25T01:38:59.412Z,98531.09
2023-03-25T01:41:33.227Z,98530.41
2023-03-25T01:44:22.357Z,98528.16
2023-03-25T01:46:53.672Z,98523.88
2023-03-25T01:49:24.545Z,98511.06
2023-03-25T01:51:59.115Z,98504.44
2023-03-25T01:54:27.546Z,98496.84
2023-03-25T01:56:56.183Z,98487.56
2023-03-25T01:59:27.285Z,98479.91
2023-03-25T02:02:03.342Z,98482.69
2023-03-25T02:04:39.329Z,98476.03
2023-03-25T02:07:11.532Z,98483.84
2023-03-25T02:09:39.622Z,98474.34
2023-03-25T02:12:08.066Z,98473.81
2023-03-25T02:14:37.362Z,98481.72
2023-03-25T02:17:43.383Z,98469.19
2023-03-25T02:20:43.017Z,98471.78
2023-03-25T02:23:22.215Z,98482.06
2023-03-25T02:26:20.456Z,98476.19
2023-03-25T02:28:56.243Z,98470.03
2023-03-25T02:31:42.409Z,98463.25
2023-03-25T02:34:33.512Z,98455.84
2023-03-25T02:37:19.146Z,98449.19
2023-03-25T02:39:59.915Z,98454.28
2023-03-25T02:42:45.291Z,98438.00
2023-03-25T02:45:21.096Z,98442.34
2023-03-25T02:47:55.751Z,98438.09
2023-03-25T02:50:33.848Z,98425.34
2023-03-25T02:53:10.961Z,98426.19
2023-03-25T02:55:42.504Z,98421.19
2023-03-25T02:58:13.562Z,98435.81
2023-03-25T03:00:43.372Z,98431.69
2023-03-25T03:03:11.161Z,98419.72
2023-03-25T03:05:44.433Z,98415.50
2023-03-25T03:08:30.564Z,98412.16
2023-03-25T03:11:20.569Z,98410.75
2023-03-25T03:14:00.104Z,98401.34
2023-03-25T03:16:58.587Z,98395.41
2023-03-25T03:19:47.900Z,98393.81
2023-03-25T03:22:36.764Z,98374.31
2023-03-25T03:25:14.821Z,98381.19
2023-03-25T03:28:16.595Z,98377.19
2023-03-25T03:30:54.526Z,98361.78
2023-03-25T03:33:57.744Z,98369.78
2023-03-25T03:36:33.194Z,98360.25
2023-03-25T03:39:09.923Z,98356.78
2023-03-25T03:41:42.127Z,98349.09
2023-03-25T03:44:19.156Z,98344.22
2023-03-25T03:46:54.746Z,98338.38
2023-03-25T03:49:28.722Z,98335.09
2023-03-25T03:52:13.906Z,98321.44
2023-03-25T03:55:00.802Z,98327.44
2023-03-25T03:57:35.897Z,98321.69
2023-03-25T04:00:30.984Z,98322.56
2023-03-25T04:03:10.635Z,98308.88
2023-03-25T04:05:39.311Z,98318.34
2023-03-25T04:08:15.003Z,98305.53
2023-03-25T04:10:52.751Z,98302.13
2023-03-25T04:13:23.580Z,98304.78
2023-03-25T04:15:51.478Z,98281.78
2023-03-25T04:18:23.480Z,98292.88
2023-03-25T04:20:51.104Z,98283.41
2023-03-25T04:23:18.601Z,98287.75
2023-03-25T04:25:53.556Z,98294.66
2023-03-25T04:28:24.079Z,98280.06
2023-03-25T04:30:57.113Z,98275.78
2023-03-25T04:33:25.400Z,98268.06
2023-03-25T04:35:53.501Z,98267.91
2023-03-25T04:38:22.467Z,98273.91
2023-03-25T04:40:49.951Z,98259.41
2023-03-25T04:43:17.873Z,98260.41
2023-03-25T04:45:54.535Z,98260.38
2023-03-25T04:48:31.599Z,98258.13
2023-03-25T04:51:03.722Z,98245.38
2023-03-25T04:53:31.431Z,98230.75
2023-03-25T04:55:58.921Z,98226.56
2023-03-25T04:58:26.815Z,98220.63
2023-03-25T05:00:54.634Z,98223.34
2023-03-25T05:03:24.637Z,98214.00
2023-03-25T05:05:53.626Z,98215.91
2023-03-25T05:08:22.560Z,98211.63
2023-03-25T05:10:50.343Z,98208.34
2023-03-25T05:13:18.496Z,98199.03
2023-03-25T05:15:46.079Z,98208.66
2023-03-25T05:18:16.330Z,98219.13
2023-03-25T05:20:47.041Z,98220.88
2023-03-25T05:23:18.165Z,98219.31
2023-03-25T05:25:50.999Z,98227.94
2023-03-25T05:28:19.653Z,98216.81
2023-03-25T05:30:47.976Z,98230.47
2023-03-25T05:33:17.764Z,98223.69
2023-03-25T05:35:46.106Z,98220.34
2023-03-25T05:38:18.418Z,98223.91
2023-03-25T05:40:47.036Z,98219.63
2023-03-25T05:43:16.361Z,98201.78
2023-03-25T05:45:45.160Z,98207.03
2023-03-25T05:48:13.495Z,98199.16
2023-03-25T05:50:44.031Z,98201.59
2023-03-25T05:53:13.699Z,98188.84
2023-03-25T05:55:42.303Z,98195.69
2023-03-25T05:58:09.915Z,98201.72
2023-03-25T06:00:37.610Z,98209.50
2023-03-25T06:03:08.641Z,98214.78
2023-03-25T06:05:39.413Z,98210.69
2023-03-25T06:08:07.555Z,98205.69
2023-03-25T06:10:35.253Z,98205.09
2023-03-25T06:13:02.923Z,98200.91
2023-03-25T06:15:33.870Z,98202.00
2023-03-25T06:18:01.758Z,98196.19
2023-03-25T06:20:29.351Z,98188.72
2023-03-25T06:22:57.006Z,98177.69
2023-03-25T06:25:26.853Z,98188.91
2023-03-25T06:27:56.238Z,98185.50
2023-03-25T06:30:23.831Z,98178.50
2023-03-25T06:32:55.939Z,98177.47
2023-03-25T06:35:23.737Z,98168.81
2023-03-25T06:37:51.289Z,98186.69
2023-03-25T06:40:27.972Z,98182.41
2023-03-25T06:42:56.074Z,98179.75
2023-03-25T06:45:35.879Z,98192.53
2023-03-25T06:48:32.562Z,98176.03
2023-03-25T06:51:00.327Z,98183.72
2023-03-25T06:53:28.047Z,98173.38
2023-03-25T06:56:11.760Z,98163.00
2023-03-25T06:58:41.725Z,98179.34
2023-03-25T07:01:09.744Z,98175.75
2023-03-25T07:03:38.298Z,98177.41
2023-03-25T07:06:06.827Z,98178.94
2023-03-25T07:08:36.968Z,98175.53
2023-03-25T07:11:07.478Z,98175.41
2023-03-25T07:13:35.617Z,98159.91
2023-03-25T07:16:03.386Z,98170.31
2023-03-25T07:18:31.254Z,98178.03
2023-03-25T07:20:59.346Z,98173.69
2023-03-25T07:23:26.940Z,98178.00
2023-03-25T07:25:55.303Z,98159.22
2023-03-25T07:28:23.173Z,98164.56
2023-03-25T07:30:50.937Z,98173.06
2023-03-25T07:33:18.481Z,98172.22
2023-03-25T07:35:46.129Z,98175.56
2023-03-25T07:38:13.739Z,98161.88
2023-03-25T07:40:41.306Z,98169.56
2023-03-25T07:43:08.896Z,98168.69
2023-03-25T07:45:44.843Z,98169.63
2023-03-25T07:48:16.442Z,98163.63
2023-03-25T07:50:45.812Z,98184.09
2023-03-25T07:53:13.321Z,98192.53
2023-03-25T07:55:41.085Z,98184.84
2023-03-25T07:58:08.634Z,98188.34
2023-03-25T08:00:36.203Z,98180.69
2023-03-25T08:03:04.067Z,98161.75
2023-03-25T08:05:31.711Z,98167.06
2023-03-25T08:08:02.307Z,98172.19
2023-03-25T08:10:29.916Z,98176.50
2023-03-25T08:12:57.569Z,98179.06
2023-03-25T08:15:25.185Z,98188.56
2023-03-25T08:17:55.644Z,98196.97
2023-03-25T08:20:24.215Z,98209.72
2023-03-25T08:22:52.559Z,98211.41
2023-03-25T08:25:20.062Z,98202.69
2023-03-25T08:27:47.780Z,98202.63
2023-03-25T08:30:17.242Z,98202.66
2023-03-25T08:32:46.676Z,98199.28
2023-03-25T08:35:15.044Z,98201.78
2023-03-25T08:37:42.656Z,98207.03
2023-03-25T08:40:10.605Z,98210.44
2023-03-25T08:42:38.817Z,98201.00
2023-03-25T08:45:07.354Z,98187.38
2023-03-25T08:47:36.044Z,98199.38
2023-03-25T08:50:04.707Z,98211.34
2023-03-25T08:52:32.225Z,98208.13
2023-03-25T08:54:59.884Z,98203.09
2023-03-25T08:57:27.380Z,98214.22
2023-03-25T08:59:54.982Z,98205.69
2023-03-25T09:02:22.479Z,98218.63
2023-03-25T09:04:50.122Z,98228.84
2023-03-25T09:07:19.960Z,98207.47
2023-03-25T09:09:47.649Z,98204.97
2023-03-25T09:12:15.493Z,98199.91
2023-03-25T09:14:43.128Z,98199.19
2023-03-25T09:17:11.280Z,98198.47
2023-03-25T09:19:38.996Z,98211.31
2023-03-25T09:22:07.214Z,98204.56
2023-03-25T09:24:35.874Z,98193.44
2023-03-25T09:27:04.012Z,98193.53
2023-03-25T09:29:31.566Z,98198.66
2023-03-25T09:31:59.861Z,98200.31
2023-03-25T09:34:28.300Z,98214.00
2023-03-25T09:36:56.402Z,98208.88
2023-03-25T09:39:24.162Z,98213.16
2023-03-25T09:42:06.673Z,98220.13
2023-03-25T09:44:52.710Z,98233.00
2023-03-25T09:47:22.648Z,98226.81
2023-03-25T09:49:55.895Z,98237.97
2023-03-25T09:52:36.801Z,98241.56
2023-03-25T09:55:15.652Z,98241.75
2023-03-25T09:57:49.301Z,98239.44
2023-03-25T10:00:22.632Z,98235.22
2023-03-25T10:02:54.154Z,98231.84
2023-03-25T10:05:42.954Z,98242.19
2023-03-25T10:08:28.827Z,98231.81
2023-03-25T10:11:10.971Z,98247.28
2023-03-25T10:13:54.568Z,98228.44
2023-03-25T10:16:28.013Z,98236.28
2023-03-25T10:18:55.564Z,98236.31
2023-03-25T10:21:46.899Z,98238.06
2023-03-25T10:24:20.468Z,98242.34
2023-03-25T10:26:57.856Z,98244.97
2023-03-25T10:29:38.229Z,98248.47
2023-03-25T10:32:41.677Z,98243.34
2023-03-25T10:35:38.251Z,98240.81
2023-03-25T10:38:46.541Z,98236.56
2023-03-25T10:42:41.501Z,98247.75
2023-03-25T10:45:14.660Z,98232.19
2023-03-25T10:47:44.765Z,98230.34
2023-03-25T10:50:20.709Z,98241.56
2023-03-25T10:52:51.790Z,98225.28
2023-03-25T11:03:40.706Z,98231.50
2023-03-25T11:06:21.400Z,98234.94
2023-03-25T11:09:18.383Z,98237.56
2023-03-25T11:11:47.596Z,98240.03
2023-03-25T11:14:15.981Z,98242.66
2023-03-25T11:17:18.636Z,98223.69
2023-03-25T11:19:52.910Z,98241.84
2023-03-25T11:23:10.049Z,98231.56
2023-03-25T11:34:11.144Z,98243.56
2023-03-25T11:37:23.419Z,98222.88
2023-03-25T11:40:15.209Z,98225.50
2023-03-25T11:42:57.167Z,98224.78
2023-03-25T11:46:07.218Z,98239.41
2023-03-25T11:49:23.526Z,98236.84
2023-03-25T11:51:58.087Z,98246.22
2023-03-25T11:54:27.454Z,98239.28
2023-03-25T11:56:56.577Z,98235.84
2023-03-25T11:59:37.359Z,98230.72
2023-03-25T12:02:38.364Z,98234.22
2023-03-25T12:05:09.159Z,98243.50
2023-03-25T12:08:05.527Z,98244.38
2023-03-25T12:10:39.283Z,98237.41
2023-03-25T12:13:24.252Z,98246.03
2023-03-25T12:16:01.298Z,98259.81
2023-03-25T12:19:11.654Z,98240.09
2023-03-25T12:21:44.844Z,98252.94
2023-03-25T12:24:32.801Z,98241.84
2023-03-25T12:27:14.968Z,98247.09
2023-03-25T12:30:04.253Z,98252.25
2023-03-25T12:32:37.677Z,98260.75
2023-03-25T12:35:20.057Z,98256.44
2023-03-25T12:37:53.944Z,98248.81
2023-03-25T12:40:33.689Z,98254.06
2023-03-25T12:43:31.498Z,98241.19
2023-03-25T12:46:17.423Z,98239.56
2023-03-25T12:48:58.769Z,98242.13
2023-03-25T12:51:26.299Z,98247.28
2023-03-25T12:54:19.882Z,98245.59
2023-03-25T12:56:59.520Z,98253.28
2023-03-25T12:59:38.106Z,98254.97
2023-03-25T13:02:27.213Z,98252.34
2023-03-25T13:05:16.091Z,98247.13
2023-03-25T13:07:49.161Z,98246.22
2023-03-25T13:10:18.441Z,98241.13
2023-03-25T13:13:01.646Z,98240.28
2023-03-25T13:15:44.169Z,98239.41
2023-03-25T13:18:30.275Z,98241.13
2023-03-25T13:21:00.769Z,98240.22
2023-03-25T13:23:33.250Z,98238.50
2023-03-25T13:26:11.947Z,98241.09
2023-03-25T13:28:56.178Z,98234.22
2023-03-25T13:31:27.734Z,98239.41
2023-03-25T13:34:02.105Z,98232.66
2023-03-25T13:36:34.594Z,98239.47
2023-03-25T13:39:10.694Z,98232.59
2023-03-25T13:41:42.873Z,98237.78
2023-03-25T13:44:20.400Z,98251.53
2023-03-25T13:46:53.947Z,98253.25
2023-03-25T13:49:30.353Z,98254.09
2023-03-25T13:51:58.851Z,98256.69
2023-03-25T13:54:38.338Z,98258.38
2023-03-25T13:57:18.402Z,98260.97
2023-03-25T14:00:11.810Z,98260.91
2023-03-25T14:02:44.803Z,98257.50
2023-03-25T14:05:34.294Z,98252.41
2023-03-25T14:08:52.864Z,98243.03
2023-03-25T14:11:30.567Z,98248.94
2023-03-25T14:14:07.236Z,98243.81
2023-03-25T14:16:39.181Z,98248.06
2023-03-25T14:19:16.860Z,98245.47
2023-03-25T14:21:52.085Z,98253.13
2023-03-25T14:24:31.628Z,98250.44
2023-03-25T14:27:05.870Z,98264.16
2023-03-25T14:29:42.254Z,98252.03
2023-03-25T14:32:09.735Z,98259.75
2023-03-25T14:34:39.398Z,98253.75
2023-03-25T14:37:07.947Z,98256.31
2023-03-25T14:39:35.770Z,98253.81
2023-03-25T14:42:11.283Z,98251.25
2023-03-25T14:44:49.550Z,98270.03
2023-03-25T14:47:20.485Z,98264.84
2023-03-25T14:50:01.636Z,98265.63
2023-03-25T14:52:43.914Z,98257.13
2023-03-25T14:55:28.664Z,98263.09
2023-03-25T14:58:17.795Z,98276.09
2023-03-25T15:00:55.242Z,98267.31
2023-03-25T15:03:33.971Z,98273.41
2023-03-25T15:06:02.793Z,98270.72
2023-03-25T15:08:38.305Z,98275.88
2023-03-25T15:11:33.469Z,98287.13
2023-03-25T15:14:25.274Z,98274.13
2023-03-25T15:17:05.839Z,98267.22
2023-03-25T15:19:59.255Z,98272.34
2023-03-25T15:22:30.570Z,98273.91
2023-03-25T15:25:00.717Z,98279.06
2023-03-25T15:27:42.100Z,98289.31
2023-03-25T15:30:51.804Z,98294.56
2023-03-25T15:33:46.294Z,98291.97
2023-03-25T15:36:51.102Z,98296.25
2023-03-25T15:40:06.671Z,98302.19
2023-03-25T15:43:13.881Z,98296.13
2023-03-25T15:46:25.605Z,98305.59
2023-03-25T15:49:06.602Z,98299.47
2023-03-25T15:51:50.727Z,98296.81
2023-03-25T15:54:45.626Z,98314.84
2023-03-25T15:57:28.327Z,98306.16
2023-03-25T15:59:59.987Z,98304.41
2023-03-25T16:02:48.733Z,98301.84
2023-03-25T16:05:20.273Z,98296.63
2023-03-25T16:07:49.274Z,98301.75
2023-03-25T16:11:19.947Z,98302.63
2023-03-25T16:15:14.319Z,98306.81
2023-03-25T16:19:15.889Z,98315.31
2023-03-25T16:39:27.203Z,98321.81
2023-03-25T16:42:34.759Z,98321.00
2023-03-25T16:45:06.635Z,98316.50
2023-03-25T16:47:34.459Z,98323.38
2023-03-25T16:50:03.781Z,98333.59
2023-03-25T16:52:34.207Z,98331.81
2023-03-25T16:55:01.581Z,98340.28
2023-03-25T16:57:33.745Z,98341.03
2023-03-25T17:00:17.592Z,98340.31
2023-03-25T17:02:48.632Z,98355.66
2023-03-25T17:05:19.013Z,98357.31
2023-03-25T17:07:49.614Z,98350.44
2023-03-25T17:10:27.526Z,98359.00
2023-03-25T17:13:10.763Z,98349.59
2023-03-25T17:15:38.529Z,98366.66
2023-03-25T17:18:14.522Z,98372.66
2023-03-25T17:20:45.028Z,98385.47
2023-03-25T17:23:20.941Z,98375.22
2023-03-25T17:25:54.968Z,98375.88
2023-03-25T17:28:28.820Z,98390.50
2023-03-25T17:30:56.794Z,98385.34
2023-03-25T17:33:30.157Z,98387.94
2023-03-25T17:35:57.972Z,98393.00
2023-03-25T17:38:27.874Z,98398.97
2023-03-25T17:41:10.046Z,98394.78
2023-03-25T17:43:44.090Z,98401.50
2023-03-25T17:46:16.289Z,98402.34
2023-03-25T17:48:43.804Z,98403.09
2023-03-25T17:51:13.565Z,98401.25
2023-03-25T17:53:41.151Z,98403.94
2023-03-25T17:56:12.459Z,98400.44
2023-03-25T17:58:40.174Z,98404.66
2023-03-25T18:01:08.371Z,98413.25
2023-03-25T18:03:36.395Z,98408.91
2023-03-25T18:06:05.396Z,98411.50
2023-03-25T18:08:33.505Z,98408.03
2023-03-25T18:11:01.871Z,98414.88
2023-03-25T18:13:29.547Z,98417.38
2023-03-25T18:15:57.238Z,98426.81
2023-03-25T18:18:26.355Z,98430.25
2023-03-25T18:21:00.353Z,98428.56
2023-03-25T18:23:28.461Z,98410.47
2023-03-25T18:25:56.375Z,98432.13
2023-03-25T18:28:25.251Z,98434.72
2023-03-25T18:30:55.580Z,98427.75
2023-03-25T18:33:24.320Z,98426.91
2023-03-25T18:35:58.967Z,98432.03
2023-03-25T18:38:27.931Z,98428.63
2023-03-25T18:40:57.364Z,98435.53
2023-03-25T18:43:24.819Z,98434.72
2023-03-25T18:45:52.808Z,98430.41
2023-03-25T18:48:21.563Z,98422.69
2023-03-25T18:50:59.405Z,98423.59
2023-03-25T18:53:29.123Z,98434.72
2023-03-25T18:56:02.501Z,98437.25
2023-03-25T18:58:32.182Z,98439.00
2023-03-25T19:01:01.169Z,98446.78
2023-03-25T19:03:38.476Z,98439.09
2023-03-25T19:06:11.884Z,98444.22
2023-03-25T19:08:54.254Z,98445.09
2023-03-25T19:11:22.528Z,98435.66
2023-03-25T19:13:51.240Z,98439.97
2023-03-25T19:16:19.712Z,98444.25
2023-03-25T19:18:47.700Z,98442.69
2023-03-25T19:21:19.721Z,98444.38
2023-03-25T19:23:47.610Z,98444.41
2023-03-25T19:26:15.118Z,98446.94
2023-03-25T19:28:42.893Z,98435.81
2023-03-25T19:31:15.717Z,98442.72
2023-03-25T19:33:43.538Z,98443.53
2023-03-25T19:36:16.476Z,98444.38
2023-03-25T19:38:44.082Z,98451.22
2023-03-25T19:41:14.085Z,98444.38
2023-03-25T19:43:41.861Z,98444.31
2023-03-25T19:46:09.910Z,98448.66
2023-03-25T19:48:38.736Z,98452.94
2023-03-25T19:51:07.137Z,98441.78
2023-03-25T19:53:34.780Z,98452.91
2023-03-25T19:56:04.738Z,98450.28
2023-03-25T19:58:32.775Z,98441.72
2023-03-25T20:01:00.281Z,98448.53
2023-03-25T20:03:31.563Z,98438.25
2023-03-25T20:06:00.782Z,98439.88
2023-03-25T20:08:30.056Z,98447.59
2023-03-25T20:10:57.777Z,98451.06
2023-03-25T20:13:25.852Z,98445.84
2023-03-25T20:15:53.808Z,98453.53
2023-03-25T20:18:21.552Z,98464.63
2023-03-25T20:20:49.234Z,98454.28
2023-03-25T20:23:16.758Z,98457.78
2023-03-25T20:25:44.577Z,98470.53
2023-03-25T20:28:12.158Z,98456.78
2023-03-25T20:30:39.939Z,98461.06
2023-03-25T20:33:07.434Z,98462.78
2023-03-25T20:35:35.216Z,98462.00
2023-03-25T20:38:03.910Z,98477.38
2023-03-25T20:40:43.445Z,98471.34
2023-03-25T20:43:14.309Z,98485.06
2023-03-25T20:45:43.681Z,98485.88
2023-03-25T20:48:11.432Z,98475.75
2023-03-25T20:50:39.186Z,98470.53
2023-03-25T20:53:09.367Z,98469.63
2023-03-25T20:55:37.527Z,98474.72
2023-03-25T20:58:06.372Z,98479.84
2023-03-25T21:00:34.525Z,98478.09
2023-03-25T21:03:10.951Z,98469.50
2023-03-25T21:05:45.186Z,98474.66
2023-03-25T21:08:13.582Z,98474.63
2023-03-25T21:10:47.848Z,98465.22
2023-03-25T21:13:15.537Z,98467.81
2023-03-25T21:15:43.014Z,98463.50
2023-03-25T21:18:10.643Z,98466.03
2023-03-25T21:20:39.775Z,98474.59
2023-03-25T21:23:07.205Z,98470.22
2023-03-25T21:25:35.228Z,98466.78
2023-03-25T21:28:04.859Z,98459.06
2023-03-25T21:30:32.620Z,98469.34
2023-03-25T21:33:00.267Z,98459.06
2023-03-25T21:35:28.652Z,98464.22
2023-03-25T21:37:56.255Z,98471.09
2023-03-25T21:40:23.741Z,98467.75
2023-03-25T21:42:51.292Z,98466.81
2023-03-25T21:45:19.436Z,98471.16
2023-03-25T21:47:53.549Z,98468.59
2023-03-25T21:50:21.744Z,98472.81
2023-03-25T21:52:49.226Z,98469.31
2023-03-25T21:55:17.363Z,98477.03
2023-03-25T21:57:45.265Z,98480.44
2023-03-25T22:00:16.731Z,98481.22
2023-03-25T22:02:47.074Z,98489.75
2023-03-25T22:05:16.653Z,98484.59
2023-03-25T22:07:44.369Z,98490.69
2023-03-25T22:10:12.122Z,98493.19
2023-03-25T22:12:39.749Z,98494.00
2023-03-25T22:15:08.072Z,98489.72
2023-03-25T22:17:35.693Z,98492.22
2023-03-25T22:20:05.407Z,98487.09
2023-03-25T22:22:33.167Z,98486.16
2023-03-25T22:25:00.665Z,98487.06
2023-03-25T22:27:28.136Z,98475.06
2023-03-25T22:29:55.769Z,98472.47
2023-03-25T22:32:27.184Z,98482.72
2023-03-25T22:34:54.952Z,98472.44
2023-03-25T22:37:22.543Z,98475.78
2023-03-25T22:39:50.525Z,98475.72
2023-03-25T22:42:18.091Z,98473.16
2023-03-25T22:44:45.807Z,98467.16
2023-03-25T22:47:13.266Z,98463.72
2023-03-25T22:49:40.963Z,98467.91
2023-03-25T22:52:08.510Z,98465.31
2023-03-25T22:54:36.094Z,98466.22
2023-03-25T22:57:03.681Z,98459.34
2023-03-25T22:59:31.405Z,98456.75
2023-03-25T23:01:58.854Z,98459.31
2023-03-25T23:04:26.472Z,98455.88
2023-03-25T23:07:05.043Z,98453.22
2023-03-25T23:09:42.388Z,98453.19
2023-03-25T23:12:16.042Z,98454.94
2023-03-25T23:14:49.410Z,98449.81
2023-03-25T23:17:17.236Z,98446.34
2023-03-25T23:19:45.656Z,98447.94
2023-03-25T23:22:14.497Z,98442.84
2023-03-25T23:24:42.286Z,98443.63
2023-03-25T23:27:11.682Z,98446.16
2023-03-25T23:29:40.067Z,98440.22
2023-03-25T23:32:09.790Z,98442.75
2023-03-25T23:34:38.689Z,98439.34
2023-03-25T23:37:07.778Z,98437.66
2023-03-25T23:39:35.817Z,98443.66
2023-03-25T23:42:03.325Z,98439.38
2023-03-25T23:44:31.262Z,98447.94
2023-03-25T23:46:58.821Z,98453.94
2023-03-25T23:49:34.091Z,98444.47
2023-03-25T23:52:01.591Z,98447.91
2023-03-25T23:54:29.263Z,98442.75
2023-03-25T23:56:57.148Z,98447.03
2023-03-25T23:59:24.647Z,98443.59
